createdAt,value
2018-09-19T00:01:45.923Z,13.62
2018-09-19T00:04:13.151Z,12.18
2018-09-19T00:06:40.391Z,10.90
2018-09-19T00:09:08.292Z,16.05
2018-09-19T00:11:35.453Z,9.48
2018-09-19T00:14:02.657Z,9.18
2018-09-19T00:16:29.823Z,8.85
2018-09-19T00:18:56.992Z,10.85
2018-09-19T00:21:24.174Z,14.43
2018-09-19T00:23:51.348Z,12.10
2018-09-19T00:26:18.531Z,13.58
2018-09-19T00:28:45.847Z,12.00
2018-09-19T00:31:13.044Z,11.95
2018-09-19T00:33:40.304Z,9.35
2018-09-19T00:36:07.491Z,8.90
2018-09-19T00:38:34.672Z,13.43
2018-09-19T00:41:01.856Z,12.58
2018-09-19T00:43:29.060Z,15.70
2018-09-19T00:45:56.244Z,13.50
2018-09-19T00:48:23.432Z,14.68
2018-09-19T00:50:50.629Z,10.05
2018-09-19T00:53:17.815Z,11.78
2018-09-19T00:55:44.974Z,8.75
2018-09-19T00:58:12.163Z,12.25
2018-09-19T01:00:39.348Z,12.30
2018-09-19T01:03:06.532Z,12.90
2018-09-19T01:05:33.723Z,14.38
2018-09-19T01:08:00.898Z,10.75
2018-09-19T01:10:28.096Z,17.77
2018-09-19T01:12:55.273Z,14.18
2018-09-19T01:15:22.438Z,17.65
2018-09-19T01:17:49.628Z,15.78
2018-09-19T01:20:16.786Z,11.83
2018-09-19T01:22:43.976Z,17.10
2018-09-19T01:25:11.156Z,12.47
2018-09-19T01:27:38.346Z,14.83
2018-09-19T01:30:05.791Z,17.52
2018-09-19T01:32:32.971Z,17.23
2018-09-19T01:35:00.165Z,12.58
2018-09-19T01:37:27.434Z,13.75
2018-09-19T01:39:54.656Z,14.68
2018-09-19T01:42:21.838Z,14.85
2018-09-19T01:44:49.026Z,16.32
2018-09-19T01:47:16.255Z,16.17
2018-09-19T01:49:43.432Z,14.93
2018-09-19T01:52:10.622Z,17.75
2018-09-19T01:54:37.805Z,16.50
2018-09-19T01:57:04.989Z,11.18
2018-09-19T01:59:32.197Z,15.93
2018-09-19T02:01:59.368Z,11.90
2018-09-19T02:04:26.652Z,14.25
2018-09-19T02:06:53.830Z,15.08
2018-09-19T02:09:21.015Z,14.10
2018-09-19T02:11:48.184Z,9.78
2018-09-19T02:14:15.362Z,13.72
2018-09-19T02:16:42.539Z,14.53
2018-09-19T02:19:09.955Z,10.20
2018-09-19T02:21:37.295Z,13.48
2018-09-19T02:24:04.479Z,11.97
2018-09-19T02:26:31.806Z,11.18
2018-09-19T02:28:58.966Z,12.13
2018-09-19T02:31:26.317Z,12.30
2018-09-19T02:33:53.971Z,11.35
2018-09-19T02:36:25.305Z,11.63
2018-09-19T02:38:53.808Z,16.45
2018-09-19T02:41:21.366Z,19.57
2018-09-19T02:43:49.006Z,13.35
2018-09-19T02:46:16.270Z,12.03
2018-09-19T02:48:44.015Z,9.98
2018-09-19T02:51:11.192Z,15.40
2018-09-19T02:53:38.370Z,11.65
2018-09-19T02:56:05.544Z,11.15
2018-09-19T02:58:32.722Z,12.80
2018-09-19T03:00:59.890Z,17.23
2018-09-19T03:03:27.061Z,13.05
2018-09-19T03:05:54.345Z,14.75
2018-09-19T03:08:21.592Z,16.48
2018-09-19T03:10:48.822Z,14.10
2018-09-19T03:13:16.042Z,13.95
2018-09-19T03:15:43.293Z,13.68
2018-09-19T03:18:10.543Z,14.95
2018-09-19T03:20:37.837Z,17.23
2018-09-19T03:23:05.113Z,12.30
2018-09-19T03:25:32.416Z,16.30
2018-09-19T03:27:59.698Z,13.30
2018-09-19T03:30:27.862Z,10.93
2018-09-19T03:32:55.153Z,13.85
2018-09-19T03:35:22.459Z,12.63
2018-09-19T03:37:49.750Z,16.62
2018-09-19T03:40:17.052Z,11.38
2018-09-19T03:42:44.553Z,9.90
2018-09-19T03:45:11.844Z,11.88
2018-09-19T03:47:39.116Z,11.28
2018-09-19T03:50:06.418Z,13.15
2018-09-19T03:52:33.683Z,14.98
2018-09-19T03:55:01.027Z,15.53
2018-09-19T03:57:28.333Z,17.02
2018-09-19T03:59:55.618Z,15.65
2018-09-19T04:02:22.879Z,15.98
2018-09-19T04:04:50.169Z,16.12
2018-09-19T04:07:17.454Z,16.05
2018-09-19T04:09:44.808Z,13.30
2018-09-19T04:12:12.093Z,14.38
2018-09-19T04:14:39.362Z,15.10
2018-09-19T04:17:06.656Z,15.80
2018-09-19T04:19:33.957Z,14.78
2018-09-19T04:22:01.252Z,14.43
2018-09-19T04:24:28.532Z,13.80
2018-09-19T04:26:55.888Z,12.55
2018-09-19T04:29:23.182Z,14.10
2018-09-19T04:31:50.466Z,16.73
2018-09-19T04:34:17.741Z,12.70
2018-09-19T04:36:45.138Z,13.85
2018-09-19T04:39:13.218Z,13.80
2018-09-19T04:41:40.509Z,15.68
2018-09-19T04:44:08.652Z,16.30
2018-09-19T04:46:36.507Z,12.80
2018-09-19T04:49:04.053Z,12.85
2018-09-19T04:51:31.451Z,13.30
2018-09-19T04:53:58.763Z,19.95
2018-09-19T04:56:26.061Z,15.05
2018-09-19T04:58:53.335Z,13.13
2018-09-19T05:01:20.634Z,19.95
2018-09-19T05:03:47.940Z,16.15
2018-09-19T05:06:15.229Z,17.50
2018-09-19T05:08:42.587Z,11.50
2018-09-19T05:11:09.977Z,13.18
2018-09-19T05:13:37.260Z,17.70
2018-09-19T05:16:04.533Z,11.68
2018-09-19T05:18:31.817Z,11.65
2018-09-19T05:20:59.129Z,14.45
2018-09-19T05:23:26.420Z,11.40
2018-09-19T05:25:53.690Z,12.20
2018-09-19T05:28:21.018Z,12.05
2018-09-19T05:30:48.753Z,14.07
2018-09-19T05:33:16.025Z,10.45
2018-09-19T05:35:43.344Z,13.72
2018-09-19T05:38:10.621Z,9.45
2018-09-19T05:40:37.908Z,10.28
2018-09-19T05:43:05.203Z,10.38
2018-09-19T05:45:32.494Z,11.68
2018-09-19T05:47:59.773Z,11.43
2018-09-19T05:50:27.081Z,13.62
2018-09-19T05:52:54.382Z,12.00
2018-09-19T05:55:21.673Z,14.10
2018-09-19T05:57:48.962Z,13.78
2018-09-19T06:00:16.243Z,12.23
2018-09-19T06:02:43.547Z,11.55
2018-09-19T06:05:10.909Z,22.65
2018-09-19T06:07:38.139Z,13.08
2018-09-19T06:10:05.661Z,13.70
2018-09-19T06:12:32.983Z,16.00
2018-09-19T06:15:00.290Z,11.03
2018-09-19T06:17:27.635Z,11.15
2018-09-19T06:19:54.907Z,11.93
2018-09-19T06:22:22.191Z,23.40
2018-09-19T06:24:49.439Z,9.78
2018-09-19T06:27:16.747Z,12.20
2018-09-19T06:29:44.040Z,10.72
2018-09-19T06:32:11.340Z,9.95
2018-09-19T06:34:38.689Z,8.63
2018-09-19T06:37:06.054Z,8.18
2018-09-19T06:39:33.271Z,9.38
2018-09-19T06:42:00.614Z,8.33
2018-09-19T06:44:27.921Z,7.40
2018-09-19T06:46:55.252Z,8.43
2018-09-19T06:49:22.485Z,6.80
2018-09-19T06:51:49.809Z,8.98
2018-09-19T06:54:17.068Z,6.58
2018-09-19T06:56:44.344Z,7.05
2018-09-19T06:59:11.672Z,6.95
2018-09-19T07:01:38.938Z,9.50
2018-09-19T07:04:06.226Z,6.58
2018-09-19T07:06:33.672Z,9.00
2018-09-19T07:09:00.965Z,8.20
2018-09-19T07:11:28.252Z,11.65
2018-09-19T07:13:55.570Z,10.50
2018-09-19T07:16:22.855Z,9.13
2018-09-19T07:18:50.158Z,7.75
2018-09-19T07:21:17.424Z,9.98
2018-09-19T07:23:44.748Z,6.00
2018-09-19T07:26:12.003Z,5.53
2018-09-19T07:28:39.289Z,7.97
2018-09-19T07:31:06.610Z,9.78
2018-09-19T07:33:33.957Z,7.00
2018-09-19T07:36:01.244Z,5.15
2018-09-19T07:38:28.535Z,6.10
2018-09-19T07:40:55.818Z,5.28
2018-09-19T07:43:23.119Z,5.67
2018-09-19T07:45:50.405Z,7.40
2018-09-19T07:48:17.686Z,5.40
2018-09-19T07:50:44.989Z,6.47
2018-09-19T07:53:12.294Z,4.87
2018-09-19T07:55:39.579Z,6.30
2018-09-19T07:58:06.887Z,5.20
2018-09-19T08:00:34.314Z,6.40
2018-09-19T08:03:01.549Z,7.20
2018-09-19T08:05:28.861Z,6.03
2018-09-19T08:07:56.182Z,7.22
2018-09-19T08:10:23.502Z,6.12
2018-09-19T08:12:51.007Z,4.42
2018-09-19T08:15:18.464Z,5.92
2018-09-19T08:17:45.768Z,5.08
2018-09-19T08:20:13.035Z,4.87
2018-09-19T08:22:40.363Z,6.05
2018-09-19T08:25:07.653Z,6.30
2018-09-19T08:27:34.929Z,4.87
2018-09-19T08:30:02.250Z,5.33
2018-09-19T08:32:29.528Z,5.62
2018-09-19T08:34:56.917Z,6.33
2018-09-19T08:37:24.455Z,5.17
2018-09-19T08:39:51.763Z,5.22
2018-09-19T08:42:19.040Z,5.53
2018-09-19T08:44:46.328Z,7.70
2018-09-19T08:47:13.628Z,4.67
2018-09-19T08:49:40.913Z,5.75
2018-09-19T08:52:08.352Z,6.25
2018-09-19T08:54:35.677Z,4.67
2018-09-19T08:57:02.987Z,6.60
2018-09-19T08:59:30.226Z,7.62
2018-09-19T09:01:57.506Z,5.12
2018-09-19T09:04:24.824Z,5.30
2018-09-19T09:06:52.247Z,4.12
2018-09-19T09:09:19.634Z,4.17
2018-09-19T09:11:46.977Z,5.25
2018-09-19T09:14:14.276Z,4.22
2018-09-19T09:16:41.568Z,8.50
2018-09-19T09:19:08.842Z,5.35
2018-09-19T09:21:36.111Z,7.03
2018-09-19T09:24:03.393Z,6.75
2018-09-19T09:26:30.699Z,4.28
2018-09-19T09:28:58.058Z,3.98
2018-09-19T09:31:25.545Z,4.60
2018-09-19T09:33:52.835Z,4.60
2018-09-19T09:36:20.096Z,4.30
2018-09-19T09:38:47.389Z,4.45
2018-09-19T09:41:14.770Z,4.90
2018-09-19T09:43:42.103Z,7.20
2018-09-19T09:46:09.466Z,3.85
2018-09-19T09:48:36.704Z,6.10
2018-09-19T09:51:04.004Z,3.67
2018-09-19T09:55:58.544Z,6.23
2018-09-19T09:58:25.824Z,6.87
2018-09-19T10:00:53.166Z,6.50
2018-09-19T10:03:20.424Z,10.10
2018-09-19T10:05:47.751Z,5.33
2018-09-19T10:08:15.023Z,3.93
2018-09-19T10:10:42.359Z,9.23
2018-09-19T10:13:09.659Z,4.42
2018-09-19T10:15:36.968Z,14.33
2018-09-19T10:18:04.241Z,3.77
2018-09-19T10:20:31.567Z,3.20
2018-09-19T10:22:58.848Z,4.95
2018-09-19T10:25:26.306Z,4.12
2018-09-19T10:27:53.612Z,4.10
2018-09-19T10:30:20.882Z,3.55
2018-09-19T10:32:48.167Z,5.33
2018-09-19T10:35:15.461Z,3.58
2018-09-19T10:37:42.749Z,4.17
2018-09-19T10:40:10.074Z,4.97
2018-09-19T10:42:37.338Z,4.58
2018-09-19T10:45:04.872Z,3.15
2018-09-19T10:47:32.196Z,3.58
2018-09-19T10:49:59.484Z,3.92
2018-09-19T10:52:26.763Z,3.52
2018-09-19T10:54:54.032Z,4.67
2018-09-19T10:57:21.304Z,3.17
2018-09-19T10:59:48.612Z,4.05
2018-09-19T11:02:15.878Z,4.10
2018-09-19T11:04:43.160Z,4.47
2018-09-19T11:07:10.431Z,6.20
2018-09-19T11:09:37.715Z,3.62
2018-09-19T11:12:05.012Z,2.67
2018-09-19T11:14:32.271Z,3.87
2018-09-19T11:16:59.743Z,5.37
2018-09-19T11:19:27.085Z,5.60
2018-09-19T11:21:54.389Z,4.03
2018-09-19T11:24:21.672Z,3.17
2018-09-19T11:26:48.940Z,4.37
2018-09-19T11:29:16.218Z,4.23
2018-09-19T11:31:43.643Z,4.30
2018-09-19T11:34:10.946Z,3.47
2018-09-19T11:36:38.220Z,3.83
2018-09-19T11:39:07.381Z,4.70
2018-09-19T11:41:34.666Z,3.20
2018-09-19T11:44:01.935Z,3.20
2018-09-19T11:46:29.270Z,2.60
2018-09-19T11:48:56.549Z,5.10
2018-09-19T11:51:23.822Z,9.70
2018-09-19T11:53:51.121Z,5.40
2018-09-19T11:56:18.492Z,3.80
2018-09-19T11:58:45.778Z,3.10
2018-09-19T12:01:13.067Z,4.90
2018-09-19T12:03:40.348Z,2.90
2018-09-19T12:06:07.624Z,5.17
2018-09-19T12:08:34.916Z,6.77
2018-09-19T12:11:02.213Z,3.60
2018-09-19T12:13:29.472Z,4.40
2018-09-19T12:15:56.735Z,4.60
2018-09-19T12:18:24.016Z,7.73
2018-09-19T12:20:51.313Z,6.40
2018-09-19T12:23:18.584Z,3.13
2018-09-19T12:25:45.877Z,6.93
2018-09-19T12:28:13.175Z,3.03
2018-09-19T12:30:40.477Z,3.63
2018-09-19T12:33:07.769Z,2.53
2018-09-19T12:35:35.047Z,4.43
2018-09-19T12:38:02.433Z,2.70
2018-09-19T12:40:29.736Z,3.10
2018-09-19T12:42:57.008Z,2.37
2018-09-19T12:45:24.289Z,3.53
2018-09-19T12:47:51.659Z,2.90
2018-09-19T12:50:19.193Z,3.77
2018-09-19T12:52:46.548Z,2.47
2018-09-19T12:55:13.868Z,2.50
2018-09-19T12:57:41.172Z,5.37
2018-09-19T13:00:08.476Z,3.00
2018-09-19T13:02:35.845Z,2.50
2018-09-19T13:05:03.119Z,3.20
2018-09-19T13:07:30.561Z,4.27
2018-09-19T13:09:57.844Z,2.40
2018-09-19T13:12:25.192Z,5.57
2018-09-19T13:14:52.496Z,2.10
2018-09-19T13:17:19.771Z,1.67
2018-09-19T13:19:47.045Z,2.80
2018-09-19T13:22:14.331Z,2.33
2018-09-19T13:24:41.620Z,2.97
2018-09-19T13:27:08.896Z,2.80
2018-09-19T13:29:36.195Z,2.50
2018-09-19T13:32:03.459Z,2.80
2018-09-19T13:34:30.735Z,2.50
2018-09-19T13:36:58.099Z,2.50
2018-09-19T13:39:25.370Z,2.70
2018-09-19T13:41:52.685Z,3.10
2018-09-19T13:44:19.956Z,2.80
2018-09-19T13:46:47.287Z,3.10
2018-09-19T13:49:21.970Z,2.80
2018-09-19T13:51:49.274Z,2.87
2018-09-19T13:54:16.569Z,2.40
2018-09-19T13:56:43.889Z,2.40
2018-09-19T13:59:11.156Z,3.03
2018-09-19T14:01:38.432Z,2.70
2018-09-19T14:04:05.864Z,4.10
2018-09-19T14:06:33.145Z,3.37
2018-09-19T14:09:00.435Z,4.03
2018-09-19T14:11:27.707Z,2.07
2018-09-19T14:13:54.979Z,2.77
2018-09-19T14:16:22.247Z,3.17
2018-09-19T14:18:49.520Z,2.73
2018-09-19T14:21:16.825Z,4.20
2018-09-19T14:23:44.137Z,3.90
2018-09-19T14:26:11.561Z,1.97
2018-09-19T14:28:38.844Z,2.63
2018-09-19T14:31:06.128Z,2.53
2018-09-19T14:33:33.432Z,3.17
2018-09-19T14:36:00.800Z,6.60
2018-09-19T14:38:28.103Z,2.80
2018-09-19T14:40:55.381Z,2.70
2018-09-19T14:43:22.756Z,2.80
2018-09-19T14:45:50.065Z,3.77
2018-09-19T14:48:17.327Z,3.73
2018-09-19T14:50:44.681Z,2.93
2018-09-19T14:53:11.958Z,7.53
2018-09-19T14:55:39.303Z,2.33
2018-09-19T14:58:06.589Z,5.60
2018-09-19T15:00:33.876Z,2.73
2018-09-19T15:03:01.134Z,9.90
2018-09-19T15:05:28.416Z,2.83
2018-09-19T15:07:55.744Z,3.97
2018-09-19T15:10:23.128Z,4.33
2018-09-19T15:12:50.449Z,3.50
2018-09-19T15:15:17.785Z,3.90
2018-09-19T15:17:45.077Z,5.77
2018-09-19T15:20:12.356Z,3.10
2018-09-19T15:22:39.636Z,5.07
2018-09-19T15:25:06.908Z,7.37
2018-09-19T15:27:34.237Z,3.40
2018-09-19T15:30:01.484Z,3.47
2018-09-19T15:32:28.784Z,5.30
2018-09-19T15:34:56.076Z,3.67
2018-09-19T15:37:23.396Z,3.67
2018-09-19T15:39:50.683Z,3.80
2018-09-19T15:42:17.979Z,4.17
2018-09-19T15:44:45.243Z,3.53
2018-09-19T15:47:12.525Z,2.27
2018-09-19T15:49:39.843Z,6.20
2018-09-19T15:52:07.112Z,2.30
2018-09-19T15:54:34.397Z,4.57
2018-09-19T15:57:01.697Z,4.47
2018-09-19T15:59:28.988Z,5.17
2018-09-19T16:01:56.263Z,6.20
2018-09-19T16:04:23.527Z,6.70
2018-09-19T16:06:50.845Z,4.10
2018-09-19T16:09:18.145Z,4.50
2018-09-19T16:11:45.427Z,2.37
2018-09-19T16:14:12.772Z,5.00
2018-09-19T16:16:40.061Z,3.73
2018-09-19T16:19:07.339Z,4.63
2018-09-19T16:21:34.624Z,4.33
2018-09-19T16:24:01.929Z,6.60
2018-09-19T16:26:29.252Z,2.90
2018-09-19T16:28:56.572Z,3.50
2018-09-19T16:31:23.854Z,3.80
2018-09-19T16:33:51.120Z,2.27
2018-09-19T16:36:18.397Z,3.40
2018-09-19T16:38:45.960Z,3.73
2018-09-19T16:41:13.295Z,4.60
2018-09-19T16:43:40.571Z,5.00
2018-09-19T16:46:07.880Z,3.77
2018-09-19T16:48:35.164Z,4.63
2018-09-19T16:51:02.439Z,5.83
2018-09-19T16:53:29.711Z,6.53
2018-09-19T16:55:57.125Z,4.30
2018-09-19T16:58:24.432Z,6.20
2018-09-19T17:00:51.704Z,4.80
2018-09-19T17:03:18.995Z,10.43
2018-09-19T17:05:46.299Z,8.60
2018-09-19T17:08:13.588Z,9.87
2018-09-19T17:10:41.327Z,6.30
2018-09-19T17:13:08.716Z,5.87
2018-09-19T17:15:36.062Z,5.60
2018-09-19T17:18:03.531Z,9.87
2018-09-19T17:20:30.844Z,5.83
2018-09-19T17:22:58.240Z,6.63
2018-09-19T17:25:25.584Z,5.57
2018-09-19T17:27:52.909Z,9.60
2018-09-19T17:30:20.221Z,8.60
2018-09-19T17:32:47.503Z,9.90
2018-09-19T17:35:14.772Z,5.50
2018-09-19T17:37:42.049Z,7.97
2018-09-19T17:40:09.487Z,7.07
2018-09-19T17:42:36.760Z,7.73
2018-09-19T17:45:04.108Z,5.43
2018-09-19T17:47:31.406Z,8.10
2018-09-19T17:49:58.772Z,16.53
2018-09-19T17:52:26.033Z,12.23
2018-09-19T17:54:53.300Z,6.07
2018-09-19T17:57:20.564Z,6.70
2018-09-19T17:59:47.836Z,7.25
2018-09-19T18:02:15.116Z,5.00
2018-09-19T18:04:42.411Z,11.60
2018-09-19T18:07:09.785Z,7.70
2018-09-19T18:09:37.072Z,12.65
2018-09-19T18:12:04.413Z,12.58
2018-09-19T18:14:31.712Z,19.12
2018-09-19T18:16:59.216Z,8.50
2018-09-19T18:19:26.515Z,13.53
2018-09-19T18:21:53.849Z,14.25
2018-09-19T18:24:21.129Z,9.13
2018-09-19T18:26:48.411Z,6.40
2018-09-19T18:29:15.772Z,6.33
2018-09-19T18:31:43.424Z,5.87
2018-09-19T18:34:10.801Z,10.60
2018-09-19T18:36:38.141Z,10.58
2018-09-19T18:39:05.740Z,5.33
2018-09-19T18:41:33.015Z,20.25
2018-09-19T18:44:00.284Z,7.15
2018-09-19T18:46:27.580Z,10.48
2018-09-19T18:48:54.860Z,9.50
2018-09-19T18:51:22.130Z,11.22
2018-09-19T18:53:49.412Z,10.05
2018-09-19T18:56:16.691Z,10.18
2018-09-19T18:58:43.984Z,11.53
2018-09-19T19:01:11.262Z,10.82
2018-09-19T19:03:38.637Z,11.20
2018-09-19T19:06:05.951Z,14.23
2018-09-19T19:08:33.215Z,8.18
2018-09-19T19:11:00.488Z,8.90
2018-09-19T19:13:27.754Z,9.58
2018-09-19T19:15:55.065Z,15.45
2018-09-19T19:18:22.340Z,7.70
2018-09-19T19:20:49.660Z,7.90
2018-09-19T19:23:17.028Z,7.70
2018-09-19T19:25:44.316Z,7.40
2018-09-19T19:28:11.628Z,9.55
2018-09-19T19:30:38.973Z,12.30
2018-09-19T19:33:06.217Z,51.33
2018-09-19T19:35:33.501Z,8.03
2018-09-19T19:38:00.825Z,6.97
2018-09-19T19:40:28.102Z,12.05
2018-09-19T19:42:55.463Z,9.95
2018-09-19T19:45:22.768Z,10.55
2018-09-19T19:47:50.097Z,6.28
2018-09-19T19:50:17.401Z,5.42
2018-09-19T19:52:44.688Z,5.80
2018-09-19T19:55:12.039Z,11.10
2018-09-19T19:57:39.321Z,7.50
2018-09-19T20:00:06.629Z,7.20
2018-09-19T20:02:33.927Z,5.72
2018-09-19T20:05:01.215Z,6.00
2018-09-19T20:07:28.502Z,10.35
2018-09-19T20:09:55.875Z,8.03
2018-09-19T20:12:23.182Z,7.30
2018-09-19T20:14:50.476Z,7.35
2018-09-19T20:17:17.829Z,5.35
2018-09-19T20:19:45.271Z,5.78
2018-09-19T20:22:12.579Z,6.83
2018-09-19T20:24:40.300Z,4.78
2018-09-19T20:27:07.960Z,5.78
2018-09-19T20:29:35.332Z,8.40
2018-09-19T20:32:02.617Z,6.72
2018-09-19T20:34:29.905Z,6.05
2018-09-19T20:36:57.201Z,11.05
2018-09-19T20:39:24.500Z,7.00
2018-09-19T20:41:51.782Z,10.30
2018-09-19T20:44:19.129Z,6.95
2018-09-19T20:46:46.405Z,10.15
2018-09-19T20:49:13.704Z,8.60
2018-09-19T20:51:41.002Z,7.12
2018-09-19T20:54:08.276Z,7.42
2018-09-19T20:56:35.577Z,7.78
2018-09-19T20:59:02.850Z,6.87
2018-09-19T21:01:30.129Z,9.30
2018-09-19T21:03:57.432Z,7.50
2018-09-19T21:06:24.713Z,8.15
2018-09-19T21:08:52.052Z,8.85
2018-09-19T21:11:19.332Z,24.82
2018-09-19T21:13:46.647Z,8.78
2018-09-19T21:16:13.922Z,8.20
2018-09-19T21:18:41.211Z,5.22
2018-09-19T21:21:08.727Z,9.33
2018-09-19T21:23:36.006Z,7.10
2018-09-19T21:26:03.320Z,5.90
2018-09-19T21:28:30.822Z,6.35
2018-09-19T21:30:58.233Z,5.80
2018-09-19T21:33:25.540Z,6.97
2018-09-19T21:35:52.836Z,5.17
2018-09-19T21:38:20.174Z,8.90
2018-09-19T21:40:47.483Z,5.30
2018-09-19T21:43:14.780Z,11.20
2018-09-19T21:45:42.191Z,7.80
2018-09-19T21:48:09.497Z,11.65
2018-09-19T21:50:36.791Z,5.67
2018-09-19T21:53:04.068Z,6.03
2018-09-19T21:55:31.352Z,6.83
2018-09-19T21:57:58.656Z,6.90
2018-09-19T22:00:25.977Z,5.72
2018-09-19T22:02:53.260Z,6.10
2018-09-19T22:05:20.584Z,4.85
2018-09-19T22:07:47.867Z,4.78
2018-09-19T22:10:15.209Z,8.25
2018-09-19T22:12:42.530Z,7.15
2018-09-19T22:15:09.800Z,5.87
2018-09-19T22:17:37.189Z,5.78
2018-09-19T22:20:04.483Z,7.78
2018-09-19T22:22:31.753Z,5.30
2018-09-19T22:24:59.041Z,9.58
2018-09-19T22:27:26.354Z,6.37
2018-09-19T22:29:53.633Z,8.00
2018-09-19T22:32:20.929Z,11.20
2018-09-19T22:34:48.194Z,6.53
2018-09-19T22:37:15.484Z,8.10
2018-09-19T22:39:42.752Z,7.25
2018-09-19T22:42:10.093Z,6.47
2018-09-19T22:44:37.384Z,6.30
2018-09-19T22:47:04.668Z,9.63
2018-09-19T22:49:31.932Z,7.03
2018-09-19T22:51:59.215Z,7.00
2018-09-19T22:54:26.493Z,7.80
2018-09-19T22:56:53.769Z,6.65
2018-09-19T22:59:21.159Z,6.37
2018-09-19T23:01:48.433Z,6.33
2018-09-19T23:04:15.794Z,6.67
2018-09-19T23:06:43.089Z,5.62
2018-09-19T23:09:10.360Z,6.70
2018-09-19T23:11:37.624Z,8.38
2018-09-19T23:14:04.883Z,7.00
2018-09-19T23:16:32.147Z,7.45
2018-09-19T23:18:59.429Z,7.67
2018-09-19T23:21:26.707Z,6.53
2018-09-19T23:23:53.996Z,8.75
2018-09-19T23:26:21.281Z,7.28
2018-09-19T23:28:48.564Z,7.10
2018-09-19T23:31:15.853Z,6.53
2018-09-19T23:33:43.139Z,5.83
2018-09-19T23:36:10.434Z,7.60
2018-09-19T23:38:37.740Z,5.92
2018-09-19T23:41:05.045Z,5.05
2018-09-19T23:43:32.344Z,5.67
2018-09-19T23:45:59.618Z,6.65
2018-09-19T23:48:26.895Z,7.15
2018-09-19T23:50:54.200Z,5.22
2018-09-19T23:53:21.475Z,7.87
2018-09-19T23:55:48.789Z,9.05
2018-09-19T23:58:16.072Z,7.40
